TAF KCXP
KCXP 090520Z 0906/1006 23010G20KT P6SM SCT050 BKN110 FM091000 VRB05KT 5SM -RASN BKN025 OVC035 FM091400 VRB04KT 1SM RASN BKN012 OVC020 FM092100 34011KT P6SM BKN035 FM100400 34007KT P6SM FEW040=
METAR KCXP
WC KCXP
WS KCXP
WV KCXP